Terminal Aerodrome Forecast
Issued by NWS Cleveland, OH

Home | Current Version | Previous Version | Graphics & Text | Print | Product List | Glossary On
Versions: 1 2 3 4 5 6 7 8 9 10 11 12 13 14 15 16 17 18
000
FTUS41 KCLE 161700
TAFMFD
TAF
KMFD 161739Z 1618/1718 33006KT P6SM BKN035
     FM162000 33004KT P6SM BKN045
     FM162200 35004KT P6SM SCT045
     FM170100 VRB02KT P6SM SKC
     FM170800 18002KT 4SM BR SKC
      TEMPO 1711/1713 2SM BR
     FM171400 24006KT P6SM SKC=

USA.gov is the U.S. government's official web portal to all federal, state and local government web resources and services.